Time;durP1;ratioP1;P1;durP2;ratioP2;P2;SDS_P1;SDS_P2;PMS_P1;PMS_P2;Temp;Humidity;BMP_temperature;BMP_pressure;BME280_temperature;BME280_humidity;BME280_pressure;Samples;Min_cycle;Max_cycle;Signal;HPM_P1;HPM_P2
2022/08/21 16:37:13;;;;;;;2.63;1.70;;;23.10;99.90;;;-141.84;45.07;21580.34;5656445;24;20216;-61
2022/08/21 16:39:51;;;;;;;3.60;2.58;;;23.00;99.90;;;-141.84;45.33;21541.72;4736136;30;20216;-60
2022/08/21 16:42:25;;;;;;;3.63;2.20;;;23.00;99.90;;;-141.84;45.61;21525.47;4751455;30;20224;-61
2022/08/21 16:44:55;;;;;;;6.50;2.63;;;22.90;99.90;;;-141.84;45.19;21527.50;4751139;30;20284;-60
2022/08/21 16:47:24;;;;;;;4.53;2.35;;;22.90;99.90;;;-141.84;45.36;21517.31;4751557;30;20450;-61
2022/08/21 16:49:54;;;;;;;5.10;2.55;;;22.90;99.90;;;-141.84;45.76;21543.75;4742047;30;20241;-60
2022/08/21 16:52:23;;;;;;;3.53;2.50;;;22.90;99.90;;;-141.84;45.07;21572.22;4733230;30;20247;-60
2022/08/21 16:54:52;;;;;;;4.05;2.40;;;23.00;99.90;;;-141.84;45.29;21558.00;4733249;30;20249;-60
2022/08/21 16:57:20;;;;;;;3.22;2.20;;;23.00;99.90;;;-141.84;45.33;21507.16;4733189;30;20219;-60
2022/08/21 16:59:49;;;;;;;4.30;2.65;;;22.90;99.90;;;-141.84;45.05;21545.78;4733321;30;20308;-61
2022/08/21 17:02:29;;;;;;;3.80;2.58;;;22.90;99.90;;;-141.84;45.89;21517.31;4732993;30;20598;-59
2022/08/21 17:04:57;;;;;;;2.75;2.33;;;22.80;99.90;;;-141.84;46.09;21501.06;4733073;30;20264;-61
2022/08/21 17:07:27;;;;;;;4.75;2.60;;;22.80;99.90;;;-141.84;46.69;21470.56;4732866;30;20252;-61
2022/08/21 17:09:55;;;;;;;3.88;2.60;;;22.70;99.90;;;-141.84;46.83;21474.63;4732045;30;20323;-60
2022/08/21 17:12:24;;;;;;;3.17;2.20;;;22.60;99.90;;;-141.84;46.51;21476.66;4734004;30;20349;-61
2022/08/21 17:14:52;;;;;;;3.80;2.42;;;22.50;99.90;;;-141.84;46.21;21436.00;4750926;30;20236;-61
2022/08/21 17:17:20;;;;;;;4.03;2.28;;;22.50;99.90;;;-141.84;46.28;21456.34;4750331;30;20232;-61
2022/08/21 17:19:48;;;;;;;3.17;2.00;;;22.50;99.90;;;-141.84;46.41;21427.88;4750325;30;20240;-61
2022/08/21 17:22:17;;;;;;;3.63;2.60;;;22.50;99.90;;;-141.84;46.48;21425.84;4750436;30;20330;-61
2022/08/21 17:24:46;;;;;;;4.10;2.33;;;22.40;99.90;;;-141.84;46.89;21411.59;4750425;30;20238;-59
2022/08/21 17:27:14;;;;;;;5.72;4.57;;;22.30;99.90;;;-141.84;47.17;21383.13;4750323;30;20212;-60
2022/08/21 17:29:42;;;;;;;5.35;2.88;;;22.30;99.90;;;-141.84;47.12;21372.97;4751004;30;20254;-60
2022/08/21 17:32:18;;;;;;;4.15;2.72;;;22.20;99.90;;;-141.84;47.65;21370.94;4750167;30;20232;-59
2022/08/21 17:34:47;;;;;;;4.18;2.70;;;22.10;99.90;;;-141.84;47.36;21356.69;4750155;30;20270;-60
2022/08/21 17:37:15;;;;;;;4.15;2.40;;;22.10;99.90;;;-141.84;47.67;21344.50;4750034;30;20315;-59
2022/08/21 17:39:43;;;;;;;4.13;2.55;;;22.10;99.90;;;-141.84;47.99;21332.31;4750143;30;20315;-60
2022/08/21 17:42:14;;;;;;;4.47;2.40;;;22.00;99.90;;;-141.84;48.27;21342.47;4750688;30;20216;-60
2022/08/21 17:44:45;;;;;;;3.13;2.15;;;21.90;99.90;;;-141.84;48.34;21324.19;4750690;30;20562;-61
2022/08/21 17:47:14;;;;;;;3.13;2.50;;;21.80;99.90;;;-141.84;48.69;21287.56;4750297;30;20242;-61
2022/08/21 17:49:42;;;;;;;4.82;2.60;;;21.80;99.90;;;-141.84;49.10;21265.22;4750100;30;20235;-60
2022/08/21 17:52:11;;;;;;;4.07;2.45;;;21.70;99.90;;;-141.84;49.25;21257.09;4750196;30;20246;-63
2022/08/21 17:54:39;;;;;;;3.80;2.58;;;21.70;99.90;;;-141.84;49.25;21248.94;4749893;30;20871;-60
2022/08/21 17:57:08;;;;;;;4.57;2.70;;;21.60;99.90;;;-141.84;49.29;21242.84;4749968;30;20763;-62
2022/08/21 17:59:38;;;;;;;4.68;2.67;;;21.50;99.90;;;-141.84;49.32;21202.19;4750549;30;20223;-61
2022/08/21 18:02:06;;;;;;;3.05;2.38;;;21.50;99.90;;;-141.84;49.82;21210.31;4750009;30;20236;-60
2022/08/21 18:04:49;;;;;;;5.03;3.40;;;21.40;99.90;;;-141.84;49.99;21208.28;4750086;30;20289;-62
2022/08/21 18:07:18;;;;;;;3.42;2.70;;;21.30;99.90;;;-141.84;50.47;21167.63;4750275;30;20328;-61
2022/08/21 18:10:00;;;;;;;3.00;2.70;;;21.20;99.90;;;-141.84;51.25;21169.66;4750139;30;20421;-62
2022/08/21 18:12:30;;;;;;;4.40;3.00;;;21.10;99.90;;;-141.84;51.40;21110.69;4750174;30;20244;-62
2022/08/21 18:15:01;;;;;;;3.45;2.90;;;21.00;99.90;;;-141.84;51.93;21104.59;4750245;30;20720;-62
2022/08/21 18:17:32;;;;;;;3.05;2.75;;;20.90;99.90;;;-141.84;52.14;21086.31;4768142;30;20314;-60
2022/08/21 18:20:01;;;;;;;3.85;2.90;;;20.90;99.90;;;-141.84;52.80;21090.38;4768449;29;20327;-61
2022/08/21 18:22:29;;;;;;;4.22;3.00;;;20.80;99.90;;;-141.84;53.31;21039.53;4771399;29;20235;-62
2022/08/21 18:24:57;;;;;;;3.97;3.00;;;20.70;99.90;;;-141.84;54.20;21031.41;4771157;29;20270;-61
2022/08/21 18:27:26;;;;;;;4.70;2.88;;;20.60;99.90;;;-141.84;54.31;20996.84;4771489;29;20235;-62
2022/08/21 18:30:01;;;;;;;3.83;3.00;;;20.50;99.90;;;-141.84;54.34;20962.28;4771730;30;20199;-63
2022/08/21 18:32:30;;;;;;;3.47;2.50;;;20.40;99.90;;;-141.84;54.81;20964.31;4764656;30;20307;-63
2022/08/21 18:35:02;;;;;;;3.85;3.03;;;20.30;99.90;;;-141.84;55.51;20952.13;4752927;29;20271;-61
2022/08/21 18:37:30;;;;;;;4.00;2.95;;;20.30;99.90;;;-141.84;55.61;20948.06;4753012;30;20740;-61
2022/08/21 18:39:59;;;;;;;3.78;3.33;;;20.20;99.90;;;-141.84;56.14;20903.34;4752557;29;20293;-63
2022/08/21 18:42:34;;;;;;;4.80;2.97;;;20.10;99.90;;;-141.84;56.25;20909.44;4754759;30;20259;-61
2022/08/21 18:45:12;;;;;;;6.88;3.63;;;20.00;99.90;;;-141.84;56.64;20901.31;4770537;29;20195;-63
2022/08/21 18:47:45;;;;;;;4.63;3.13;;;19.90;99.90;;;-141.84;56.44;20899.28;4771338;30;20975;-62
2022/08/21 18:50:17;;;;;;;4.47;3.22;;;19.90;99.90;;;-141.84;55.10;20976.53;4770339;29;20235;-61
2022/08/21 18:52:46;;;;;;;4.32;3.10;;;19.90;99.90;;;-141.84;54.62;20935.88;4770907;29;20588;-61
2022/08/21 18:55:21;;;;;;;5.57;3.65;;;20.00;99.90;;;-141.84;53.77;20992.78;4770419;29;20720;-62
2022/08/21 18:57:51;;;;;;;4.30;3.35;;;20.10;99.90;;;-141.84;54.36;20976.53;4770841;29;20235;-63
2022/08/21 19:00:26;;;;;;;4.93;3.28;;;20.20;99.90;;;-141.84;54.63;20933.81;4770312;29;20273;-62
2022/08/21 19:02:55;;;;;;;5.30;3.33;;;20.20;99.90;;;-141.84;55.04;20939.94;4770936;30;20223;-63
2022/08/21 19:05:24;;;;;;;4.50;3.30;;;20.20;99.90;;;-141.84;55.14;20962.28;4770205;29;20288;-62
2022/08/21 19:07:54;;;;;;;4.03;3.17;;;20.10;99.90;;;-141.84;55.05;20909.44;4770296;29;20263;-62
2022/08/21 19:10:24;;;;;;;4.60;3.50;;;20.10;99.90;;;-141.84;54.77;20929.75;4770252;29;20241;-62
2022/08/21 19:12:59;;;;;;;3.80;3.40;;;20.10;99.90;;;-141.84;55.63;20897.25;4770475;29;20247;-61
2022/08/21 19:15:30;;;;;;;4.30;2.95;;;20.00;99.90;;;-141.84;55.57;20874.88;4770008;29;20266;-62
2022/08/21 19:17:59;;;;;;;5.63;3.50;;;20.00;99.90;;;-141.84;55.48;20903.34;4770809;30;20578;-61
2022/08/21 19:20:33;;;;;;;3.95;3.30;;;19.90;99.90;;;-141.84;55.82;20874.88;4770244;30;20321;-62
2022/08/21 19:23:03;;;;;;;5.50;3.50;;;19.90;99.90;;;-141.84;56.28;20864.72;4770126;29;20337;-62
2022/08/21 19:25:34;;;;;;;4.00;3.05;;;19.90;99.90;;;-141.84;56.63;20846.41;4770111;29;20235;-61
2022/08/21 19:28:08;;;;;;;7.07;3.45;;;19.80;99.90;;;-141.84;56.83;20858.59;4770081;29;20297;-62
2022/08/21 19:30:45;;;;;;;5.05;3.40;;;19.80;99.90;;;-141.84;57.13;20830.16;4753074;30;20318;-60
2022/08/21 19:33:25;;;;;;;5.57;3.60;;;19.70;99.90;;;-141.84;56.75;20838.28;4751622;30;20546;-61
2022/08/21 19:35:53;;;;;;;6.25;3.47;;;19.70;99.90;;;-141.84;56.79;20870.81;4752278;30;20215;-62
2022/08/21 19:38:21;;;;;;;4.65;3.30;;;19.70;99.90;;;-141.84;56.87;20815.91;4751875;30;20323;-63
2022/08/21 19:40:51;;;;;;;4.50;3.25;;;19.70;99.90;;;-141.84;56.49;20815.91;4752167;30;20271;-62
2022/08/21 19:43:20;;;;;;;5.18;3.47;;;19.70;99.90;;;-141.84;57.10;20864.72;4752007;30;20236;-64
2022/08/21 19:45:55;;;;;;;5.60;3.38;;;19.60;99.90;;;-141.84;57.31;20817.94;4751753;30;20231;-62
2022/08/21 19:48:25;;;;;;;4.60;3.42;;;19.60;99.90;;;-141.84;57.24;20815.91;4752265;30;20293;-62
2022/08/21 19:50:53;;;;;;;6.05;3.35;;;19.60;99.90;;;-141.84;57.23;20773.22;4752564;30;20438;-60
2022/08/21 19:53:22;;;;;;;5.10;3.22;;;19.50;99.90;;;-141.84;57.33;20777.28;4751671;30;20335;-62
2022/08/21 19:55:50;;;;;;;4.35;3.00;;;19.50;99.90;;;-141.84;57.56;20779.31;4751742;30;20232;-62
2022/08/21 19:58:33;;;;;;;4.32;3.03;;;19.50;99.90;;;-141.84;57.93;20801.69;4751794;30;20260;-62
2022/08/21 20:01:06;;;;;;;4.53;3.35;;;19.40;99.90;;;-141.84;57.76;20789.50;4751675;30;20304;-62
2022/08/21 20:03:44;;;;;;;5.90;3.30;;;19.40;99.90;;;-141.84;58.06;20801.69;4751950;30;20263;-63
2022/08/21 20:06:24;;;;;;;5.82;3.20;;;19.40;99.90;;;-141.84;57.95;20773.22;4751691;30;20433;-61
2022/08/21 20:08:54;;;;;;;5.57;2.88;;;19.30;99.90;;;-141.84;58.42;20754.94;4752353;30;20228;-62
2022/08/21 20:11:30;;;;;;;4.00;3.28;;;19.30;99.90;;;-141.84;58.89;20734.59;4751376;30;20236;-61
2022/08/21 20:14:00;;;;;;;5.25;3.20;;;19.30;99.90;;;-141.84;59.28;20750.88;4763938;30;20231;-62
2022/08/21 20:16:31;;;;;;;5.07;3.28;;;19.20;99.90;;;-141.84;59.20;20736.63;4769083;29;20239;-62
2022/08/21 20:19:02;;;;;;;4.60;3.25;;;19.20;99.90;;;-141.84;59.59;20718.34;4769133;29;20776;-61
2022/08/21 20:21:30;;;;;;;3.55;3.05;;;19.20;99.90;;;-141.84;60.05;20708.19;4769130;29;20612;-63
2022/08/21 20:24:12;;;;;;;4.72;3.60;;;19.10;99.90;;;-141.84;60.25;20708.19;4769219;29;20645;-63
2022/08/21 20:26:43;;;;;;;4.70;3.58;;;19.10;99.90;;;-141.84;60.35;20695.97;4769713;30;20191;-61
2022/08/21 20:29:32;;;;;;;5.00;3.30;;;19.10;99.90;;;-141.84;60.53;20659.38;4769515;30;20247;-63
2022/08/21 20:32:09;;;;;;;4.95;3.22;;;19.00;99.90;;;-141.84;60.33;20693.94;4767015;29;20239;-62
2022/08/21 20:34:39;;;;;;;5.57;3.35;;;18.90;99.90;;;-141.84;60.78;20649.22;4765018;29;20904;-61
2022/08/21 20:37:12;;;;;;;4.28;3.47;;;18.90;99.90;;;-141.84;60.89;20649.22;4750692;30;20628;-62
2022/08/21 20:39:49;;;;;;;4.30;3.05;;;18.90;99.90;;;-141.84;60.84;20679.72;4751527;30;20254;-60
2022/08/21 20:42:17;;;;;;;4.63;3.33;;;18.90;99.90;;;-141.84;60.93;20657.34;4751544;30;20216;-60
2022/08/21 20:44:46;;;;;;;6.07;3.38;;;18.90;99.90;;;-141.84;61.18;20671.59;4769625;30;20318;-60
2022/08/21 20:47:16;;;;;;;3.58;3.17;;;18.80;99.90;;;-141.84;61.24;20622.81;4768950;29;20292;-61
2022/08/21 20:49:52;;;;;;;4.85;3.65;;;18.80;99.90;;;-141.84;60.96;20614.66;4768924;29;20326;-61
2022/08/21 20:52:25;;;;;;;7.57;3.90;;;18.80;99.90;;;-141.84;61.23;20588.25;4768990;29;20326;-60
2022/08/21 20:55:00;;;;;;;4.60;3.50;;;18.70;99.90;;;-141.84;61.57;20604.50;4768966;29;20318;-61
2022/08/21 20:57:42;;;;;;;6.25;3.85;;;18.70;99.90;;;-141.84;61.87;20578.09;4769087;29;20314;-61
2022/08/21 21:00:15;;;;;;;4.57;3.53;;;18.70;99.90;;;-141.84;61.98;20574.00;4768917;29;20236;-62
2022/08/21 21:02:52;;;;;;;4.60;3.80;;;18.60;99.90;;;-141.84;62.15;20588.25;4769116;30;20647;-61
2022/08/21 21:05:26;;;;;;;3.70;3.35;;;18.60;99.90;;;-141.84;62.11;20569.94;4768855;29;20235;-59
2022/08/21 21:08:12;;;;;;;4.60;3.42;;;18.60;99.90;;;-141.84;62.67;20543.53;4768565;29;20499;-61
2022/08/21 21:10:50;;;;;;;7.72;4.07;;;18.60;99.90;;;-141.84;62.80;20580.13;4767892;29;20238;-61
2022/08/21 21:13:25;;;;;;;5.20;3.80;;;18.50;99.90;;;-141.84;62.64;20598.41;4767914;29;20323;-61
2022/08/21 21:15:59;;;;;;;5.20;3.83;;;18.50;99.90;;;-141.84;62.53;20567.91;4767763;29;20245;-61
2022/08/21 21:18:36;;;;;;;5.20;3.92;;;18.50;99.90;;;-141.84;62.70;20529.28;4767998;29;20296;-62
2022/08/21 21:21:18;;;;;;;4.93;3.40;;;18.40;99.90;;;-141.84;63.27;20537.44;4767565;29;20210;-60
2022/08/21 21:23:56;;;;;;;4.72;3.55;;;18.40;99.90;;;-141.84;63.03;20529.28;4768277;30;20192;-62
2022/08/21 21:26:33;;;;;;;5.50;3.90;;;18.40;99.90;;;-141.84;63.07;20513.03;4767519;29;20227;-60
2022/08/21 21:29:11;;;;;;;6.20;3.80;;;18.40;99.90;;;-141.84;63.60;20504.91;4767973;29;20245;-61
2022/08/21 21:31:41;;;;;;;4.07;3.78;;;18.30;99.90;;;-141.84;63.50;20517.09;4767399;29;20288;-60
2022/08/21 21:34:12;;;;;;;4.35;3.95;;;18.30;99.90;;;-141.84;63.87;20447.97;4767682;29;20239;-61
2022/08/21 21:36:52;;;;;;;3.90;3.28;;;18.20;99.90;;;-141.84;64.42;20508.97;4767560;29;20292;-60
2022/08/21 21:39:30;;;;;;;5.50;3.10;;;18.20;99.90;;;-141.84;64.65;20478.47;4767412;29;20601;-59
2022/08/21 21:42:20;;;;;;;4.63;3.60;;;18.10;99.90;;;-141.84;64.41;20460.19;4767675;29;20200;-60
2022/08/21 21:45:21;;;;;;;4.53;3.47;;;18.10;99.90;;;-141.84;63.46;20502.88;4767273;29;20246;-61
2022/08/21 21:48:11;;;;;;;4.03;3.50;;;18.10;99.90;;;-141.84;63.68;20460.19;4767965;30;20199;-61
2022/08/21 21:50:54;;;;;;;5.03;3.75;;;18.10;99.90;;;-141.84;63.85;20435.78;4767820;30;20561;-60
2022/08/21 21:54:04;;;;;;;6.78;3.60;;;18.10;99.90;;;-141.84;63.54;20456.13;4767554;30;20243;-59
2022/08/21 21:56:47;;;;;;;4.78;3.70;;;18.00;99.90;;;-141.84;63.82;20443.91;4770743;30;20229;-61
2022/08/21 21:59:41;;;;;;;5.18;3.50;;;18.00;99.90;;;-141.84;64.16;20399.19;4771057;29;20235;-61
2022/08/21 22:02:25;;;;;;;5.03;3.80;;;18.00;99.90;;;-141.84;64.41;20409.38;4771017;29;20660;-59
2022/08/21 22:05:06;;;;;;;5.07;3.60;;;17.90;99.90;;;-141.84;64.38;20378.88;4770918;29;20681;-61
2022/08/21 22:07:43;;;;;;;5.88;4.00;;;17.90;99.90;;;-141.84;64.86;20389.03;4770935;29;20239;-62
2022/08/21 22:10:20;;;;;;;5.75;4.55;;;17.80;99.90;;;-141.84;64.48;20372.78;4771136;29;20262;-61
2022/08/21 22:13:20;;;;;;;4.07;3.78;;;17.80;99.90;;;-141.84;64.90;20401.22;4770811;29;20262;-60
2022/08/21 22:15:55;;;;;;;5.53;3.67;;;17.80;99.90;;;-141.84;65.18;20380.91;4770766;29;20656;-60
2022/08/21 22:18:31;;;;;;;6.65;4.28;;;17.80;99.90;;;-141.84;64.22;20389.03;4770650;29;20235;-60
2022/08/21 22:21:04;;;;;;;4.70;3.95;;;17.80;99.90;;;-141.84;64.37;20397.16;4771510;30;20206;-60
2022/08/21 22:23:41;;;;;;;5.75;4.40;;;17.70;99.90;;;-141.84;64.34;20389.03;4770952;30;20247;-60
2022/08/21 22:26:17;;;;;;;5.68;4.10;;;17.70;99.90;;;-141.84;64.81;20350.41;4770629;29;20235;-63
2022/08/21 22:28:50;;;;;;;5.72;3.65;;;17.70;99.90;;;-141.84;65.08;20360.59;4770833;29;20322;-62
2022/08/21 22:31:23;;;;;;;5.07;3.83;;;17.70;99.90;;;-141.84;65.69;20313.84;4770384;29;20318;-62
2022/08/21 22:34:12;;;;;;;5.72;4.30;;;17.70;99.90;;;-141.84;66.65;20309.75;4770594;29;20250;-61
2022/08/21 22:36:54;;;;;;;7.40;4.30;;;17.60;99.90;;;-141.84;66.26;20307.72;4770621;29;20246;-60
2022/08/21 22:39:33;;;;;;;5.93;4.07;;;17.60;99.90;;;-141.84;66.39;20289.44;4769985;29;20227;-62
2022/08/21 22:42:12;;;;;;;4.95;3.90;;;17.50;99.90;;;-141.84;66.58;20256.91;4770617;29;20192;-61
2022/08/21 22:44:52;;;;;;;4.03;3.72;;;17.40;99.90;;;-141.84;67.45;20238.63;4770748;30;20680;-61
2022/08/21 22:47:25;;;;;;;6.10;4.45;;;17.40;99.90;;;-141.84;67.71;20224.41;4770343;29;20245;-60
2022/08/21 22:49:56;;;;;;;5.65;3.92;;;17.30;99.90;;;-141.84;67.95;20252.84;4770104;29;20257;-60
2022/08/21 22:52:36;;;;;;;5.25;4.13;;;17.30;99.90;;;-141.84;68.52;20202.03;4769964;29;20508;-59
2022/08/21 22:55:24;;;;;;;6.90;4.40;;;17.30;99.90;;;-141.84;67.38;20208.13;4770047;29;20297;-60
2022/08/21 22:58:11;;;;;;;6.28;3.97;;;17.30;99.90;;;-141.84;67.19;20228.47;4770084;29;20326;-61
2022/08/21 23:00:52;;;;;;;6.85;4.25;;;17.30;99.90;;;-141.84;67.40;20226.44;4769940;29;20298;-60
2022/08/21 23:03:30;;;;;;;5.60;4.03;;;17.30;99.90;;;-141.84;67.55;20208.13;4770184;29;20219;-60
2022/08/21 23:06:03;;;;;;;6.38;4.35;;;17.30;99.90;;;-141.84;67.98;20208.13;4770164;30;20211;-60
2022/08/21 23:08:40;;;;;;;5.38;4.15;;;17.20;99.90;;;-141.84;68.24;20195.94;4769645;30;20235;-58
2022/08/21 23:11:19;;;;;;;4.68;4.10;;;17.20;99.90;;;-141.84;68.03;20210.16;4769940;29;20669;-59
2022/08/21 23:13:53;;;;;;;6.82;4.70;;;17.20;99.90;;;-141.84;68.39;20191.88;4770433;29;20239;-61
2022/08/21 23:16:42;;;;;;;4.65;4.25;;;17.20;99.90;;;-141.84;68.78;20159.34;4769933;29;20721;-60
2022/08/21 23:19:37;;;;;;;7.28;4.40;;;17.20;99.90;;;-141.84;69.38;20169.53;4769655;29;20232;-61
2022/08/21 23:22:27;;;;;;;5.32;4.20;;;17.20;99.90;;;-141.84;69.28;20102.44;4770186;29;20250;-60
2022/08/21 23:25:12;;;;;;;7.20;3.97;;;17.10;99.90;;;-141.84;68.76;20167.47;4769642;29;20330;-61
2022/08/21 23:28:03;;;;;;;4.30;3.90;;;17.10;99.90;;;-141.84;69.36;20139.03;4769758;29;20790;-60
2022/08/21 23:30:42;;;;;;;4.80;4.00;;;17.10;99.90;;;-141.84;70.18;20094.31;4769702;29;20262;-61
2022/08/21 23:33:40;;;;;;;5.78;4.55;;;17.10;99.90;;;-141.84;70.04;20122.78;4769577;29;20224;-61
2022/08/21 23:39:35;;;;;;;5.18;4.10;;;17.00;99.90;;;-141.84;68.13;20118.69;4760682;29;20219;-60
2022/08/21 23:42:29;;;;;;;7.22;4.32;;;17.00;99.90;;;-141.84;68.50;20086.19;4769325;29;20209;-60
2022/08/21 23:45:12;;;;;;;4.88;4.40;;;17.00;99.90;;;-141.84;70.25;20057.72;4769695;30;20200;-59
2022/08/21 23:47:57;;;;;;;5.78;4.10;;;16.80;99.90;;;-141.84;71.32;20055.69;4769727;30;20234;-61
2022/08/21 23:50:34;;;;;;;6.40;4.47;;;16.80;99.90;;;-141.84;70.94;20045.53;4769221;29;20326;-60
2022/08/21 23:53:21;;;;;;;5.05;4.35;;;16.80;99.90;;;-141.84;70.99;20008.94;4769031;29;20346;-60
2022/08/21 23:56:20;;;;;;;4.82;3.88;;;16.80;99.90;;;-141.84;71.64;20045.53;4769204;29;20269;-62
2022/08/21 23:59:09;;;;;;;5.38;4.32;;;16.70;99.90;;;-141.84;72.03;19984.56;4769161;29;20241;-59
